Time;durP1;ratioP1;P1;durP2;ratioP2;P2;SDS_P1;SDS_P2;PMS_P1;PMS_P2;Temp;Humidity;BMP_temperature;BMP_pressure;BME280_temperature;BME280_humidity;BME280_pressure;Samples;Min_cycle;Max_cycle;Signal;HPM_P1;HPM_P2
2022/01/20 00:00:44;;;;;;;;;34.33;28.67;;;;;9.80;69.08;102535.66;4933898;28;45649;-81
2022/01/20 00:03:15;;;;;;;;;37.25;32.50;;;;;10.13;68.72;102583.19;4909186;28;45569;-81
2022/01/20 00:08:28;;;;;;;;;34.67;31.67;;;;;10.11;68.44;102597.44;4941942;28;45367;-81
2022/01/20 00:27:19;;;;;;;;;32.00;30.00;;;;;9.87;68.65;102578.19;4978393;28;45764;-80
2022/01/20 00:32:51;;;;;;;;;26.67;26.00;;;;;9.69;68.55;102557.97;4978071;28;45551;-81
2022/01/20 00:37:42;;;;;;;;;29.00;26.00;;;;;9.45;68.45;102523.63;4979049;28;45532;-81
2022/01/20 00:40:07;;;;;;;;;33.00;28.00;;;;;9.49;68.36;102534.22;4979585;28;45495;-81
2022/01/20 00:42:33;;;;;;;;;28.00;24.00;;;;;9.78;68.45;102583.59;4978207;28;46050;-81
2022/01/20 00:44:58;;;;;;;;;29.33;29.33;;;;;9.68;67.81;102566.84;4979223;28;45541;-81
2022/01/20 00:47:24;;;;;;;;;29.33;28.00;;;;;9.74;68.13;102579.25;4978778;28;45487;-81
2022/01/20 00:49:49;;;;;;;;;31.67;29.67;;;;;9.65;68.51;102580.22;4961754;28;45328;-82
2022/01/20 00:52:15;;;;;;;;;29.33;28.67;;;;;9.45;67.71;102552.91;4979138;28;46047;-81
2022/01/20 00:54:41;;;;;;;;;29.33;28.67;;;;;9.65;67.58;102589.97;4978667;28;45545;-81
2022/01/20 00:57:06;;;;;;;;;29.67;25.33;;;;;9.60;67.83;102583.78;4979194;28;45465;-81
2022/01/20 00:59:33;;;;;;;;;34.00;27.67;;;;;9.58;67.88;102582.97;4979359;28;45467;-81
2022/01/20 01:02:01;;;;;;;;;30.00;25.67;;;;;9.20;67.76;102521.22;4978240;28;46103;-81
2022/01/20 01:04:27;;;;;;;;;36.75;33.50;;;;;9.42;67.88;102561.81;4978149;28;45425;-81
2022/01/20 01:15:20;;;;;;;;;39.75;33.25;;;;;9.36;67.47;102603.56;4977054;28;73434;-81
2022/01/20 01:20:33;;;;;;;;;34.25;31.50;;;;;9.07;68.02;102576.28;4978981;28;45322;-81
2022/01/20 01:22:59;;;;;;;;;36.00;31.00;;;;;9.26;67.92;102616.94;4959684;28;46529;-82
2022/01/20 01:25:24;;;;;;;;;42.00;33.50;;;;;9.06;67.97;102605.56;4978202;28;45336;-82
2022/01/20 01:27:50;;;;;;;;;33.00;30.00;;;;;9.19;67.79;102632.97;4978256;28;45947;-81
2022/01/20 01:30:40;;;;;;;;;30.33;25.33;;;;;9.01;67.76;102616.25;4978535;28;45337;-81
2022/01/20 01:33:06;;;;;;;;;31.00;28.00;;;;;9.15;68.47;102644.50;4978116;28;46093;-81
2022/01/20 01:35:33;;;;;;;;;28.00;28.00;;;;;8.94;67.97;102610.97;4977956;28;45471;-81
2022/01/20 01:40:31;;;;;;;;;29.67;27.00;;;;;9.09;68.57;102640.13;4978384;28;45445;-81
2022/01/20 01:42:57;;;;;;;;;26.00;26.00;;;;;8.94;68.40;102611.84;4977947;28;45422;-81
2022/01/20 01:45:33;;;;;;;;;24.33;23.67;;;;;8.91;68.35;102611.88;4977821;28;45326;-82
2022/01/20 01:47:59;;;;;;;;;25.00;22.67;;;;;9.05;68.23;102638.38;4978535;28;45523;-81
2022/01/20 01:50:25;;;;;;;;;25.33;24.00;;;;;8.96;68.22;102627.81;4978689;28;45556;-81
2022/01/20 01:52:51;;;;;;;;;24.00;21.67;;;;;8.98;68.07;102664.13;4977921;28;45486;-81
2022/01/20 01:55:17;;;;;;;;;36.00;31.00;;;;;8.66;68.47;102625.34;4978072;28;45689;-81
2022/01/20 01:57:43;;;;;;;;;29.67;26.00;;;;;8.71;68.20;102635.03;4977496;28;45459;-81
2022/01/20 02:00:10;;;;;;;;;40.50;32.25;;;;;8.90;67.91;102673.03;4978519;28;45480;-81
2022/01/20 02:02:36;;;;;;;;;26.67;26.00;;;;;8.85;67.80;102678.41;4977822;28;45469;-81
2022/01/20 02:05:04;;;;;;;;;34.67;31.67;;;;;8.86;67.70;102689.00;4959416;28;45765;-81
2022/01/20 02:18:36;;;;;;;;;25.00;21.67;;;;;8.62;67.50;102671.41;4977484;28;45573;-81
2022/01/20 02:21:01;;;;;;;;;21.00;20.67;;;;;8.44;67.85;102647.56;4960496;28;45462;-81
2022/01/20 02:23:27;;;;;;;;;26.00;23.33;;;;;8.41;67.78;102642.28;4960018;28;46660;-81
2022/01/20 02:25:53;;;;;;;;;21.67;18.00;;;;;8.69;67.85;102688.22;4977619;28;45413;-81
2022/01/20 02:28:19;;;;;;;;;18.33;17.67;;;;;8.56;67.94;102676.75;4977768;28;45422;-81
2022/01/20 02:30:44;;;;;;;;;24.00;20.67;;;;;8.66;67.54;102697.09;4977832;28;46126;-81
2022/01/20 02:33:13;;;;;;;;;19.33;17.33;;;;;8.54;67.69;102675.00;4977438;28;45777;-81
2022/01/20 02:35:43;;;;;;;;;22.67;19.33;;;;;8.57;67.38;102688.25;4977395;28;45575;-81
2022/01/20 02:38:59;;;;;;;;;19.33;17.67;;;;;8.59;67.23;102705.09;4977332;28;45400;-81
2022/01/20 02:46:23;;;;;;;;;18.00;18.00;;;;;8.29;67.16;102645.84;4977247;28;45572;-81
2022/01/20 02:48:48;;;;;;;;;18.33;16.00;;;;;8.39;66.95;102659.97;4977211;28;45512;-81
2022/01/20 02:51:13;;;;;;;;;19.33;16.00;;;;;8.40;66.98;102675.91;4977127;28;45636;-81
2022/01/20 02:53:39;;;;;;;;;18.33;15.00;;;;;8.26;67.04;102653.78;4975707;28;46495;-81
2022/01/20 02:56:05;;;;;;;;;12.00;11.00;;;;;8.24;67.53;102656.47;4993420;28;45348;-81
2022/01/20 02:58:30;;;;;;;;;20.33;19.33;;;;;8.37;66.86;102678.56;4996639;28;45477;-81
2022/01/20 03:00:58;;;;;;;;;21.00;18.67;;;;;8.30;66.94;102673.28;4997390;28;45399;-81
2022/01/20 03:03:23;;;;;;;;;17.67;17.67;;;;;8.29;66.91;102671.50;4993589;28;45339;-81
2022/01/20 03:05:49;;;;;;;;;17.67;15.00;;;;;8.17;66.75;102649.41;4976874;28;45537;-81
2022/01/20 03:08:14;;;;;;;;;15.00;15.00;;;;;8.28;66.68;102675.94;4977240;28;45375;-81
2022/01/20 03:10:40;;;;;;;;;17.33;16.00;;;;;8.25;66.68;102678.59;4977262;28;45497;-81
2022/01/20 03:13:06;;;;;;;;;14.33;14.00;;;;;8.22;67.08;102684.81;4976812;28;46373;-81
2022/01/20 03:15:34;;;;;;;;;16.00;16.00;;;;;7.97;66.81;102651.22;4976744;28;45458;-81
2022/01/20 03:18:00;;;;;;;;;22.67;19.00;;;;;8.10;66.37;102678.63;4959143;28;45463;-81
2022/01/20 03:20:25;;;;;;;;;21.67;19.00;;;;;8.00;66.78;102667.16;4976842;28;45455;-81
2022/01/20 03:22:51;;;;;;;;;15.00;14.67;;;;;7.92;66.97;102664.50;4977036;28;46425;-81
2022/01/20 03:25:16;;;;;;;;;22.33;19.00;;;;;8.09;66.81;102700.78;4976458;28;45310;-81
2022/01/20 03:27:41;;;;;;;;;17.00;17.00;;;;;7.88;67.09;102661.88;4977003;28;45388;-81
2022/01/20 03:30:08;;;;;;;;;18.00;16.67;;;;;8.09;67.33;102708.75;4978142;28;45235;-80
2022/01/20 03:32:34;;;;;;;;;18.00;17.00;;;;;7.93;66.69;102681.31;4980087;28;46239;-81
2022/01/20 03:35:00;;;;;;;;;16.67;16.67;;;;;7.79;67.09;102668.94;4980225;28;45460;-81
2022/01/20 03:37:25;;;;;;;;;20.00;20.00;;;;;7.97;67.06;102702.56;4979874;28;45344;-81
2022/01/20 03:39:50;;;;;;;;;19.33;16.67;;;;;7.91;66.89;102693.72;4980395;28;45407;-81
2022/01/20 03:42:15;;;;;;;;;11.33;11.00;;;;;7.82;66.81;102681.34;4979991;28;45943;-82
2022/01/20 03:44:41;;;;;;;;;17.67;15.00;;;;;8.02;66.68;102710.53;4980003;28;45416;-82
2022/01/20 03:47:08;;;;;;;;;23.00;20.33;;;;;8.02;66.68;102708.75;4979395;28;45434;-82
2022/01/20 03:49:39;;;;;;;;;21.00;17.00;;;;;8.00;66.62;102715.81;4980434;28;45694;-81
2022/01/20 03:52:05;;;;;;;;;14.67;12.00;;;;;7.98;66.73;102722.03;4979851;28;45543;-81
2022/01/20 03:54:31;;;;;;;;;14.67;12.33;;;;;7.91;66.87;102717.59;4958496;28;45437;-81
2022/01/20 03:56:57;;;;;;;;;15.33;13.33;;;;;7.72;66.67;102677.81;4960647;28;45559;-81
2022/01/20 03:59:22;;;;;;;;;17.00;14.00;;;;;7.91;66.64;102717.59;4960314;28;45579;-81
2022/01/20 04:01:48;;;;;;;;;21.33;17.67;;;;;7.93;66.19;102722.03;4960536;28;46211;-82
2022/01/20 04:04:13;;;;;;;;;15.67;13.67;;;;;7.84;66.38;102722.03;4967117;28;45266;-81
2022/01/20 04:06:38;;;;;;;;;19.67;15.00;;;;;7.89;66.43;102743.28;4979753;28;45499;-81
2022/01/20 04:09:04;;;;;;;;;16.33;14.33;;;;;7.86;66.62;102736.19;4979613;28;45391;-82
2022/01/20 04:11:30;;;;;;;;;13.67;13.67;;;;;7.52;66.58;102676.94;4979259;28;46885;-81
2022/01/20 04:13:56;;;;;;;;;15.00;13.00;;;;;7.56;66.71;102679.59;4979513;28;45349;-81
2022/01/20 04:16:33;;;;;;;;;12.67;12.67;;;;;7.76;66.42;102718.50;4978900;28;45574;-81
2022/01/20 04:19:00;;;;;;;;;15.67;15.00;;;;;7.69;66.48;102722.94;4979860;28;45444;-82
2022/01/20 04:21:29;;;;;;;;;14.00;13.00;;;;;7.65;66.24;102721.16;4978927;28;45441;-82
2022/01/20 04:23:57;;;;;;;;;15.00;13.00;;;;;7.55;66.49;102712.31;4979155;28;45338;-82
2022/01/20 04:26:23;;;;;;;;;14.33;12.67;;;;;7.72;66.59;102730.88;4961019;28;45240;-81
2022/01/20 04:28:53;;;;;;;;;17.00;15.00;;;;;7.53;66.48;102705.22;4980092;28;45520;-82
2022/01/20 04:31:20;;;;;;;;;13.67;12.67;;;;;7.75;66.26;102751.22;4978757;28;46857;-81
2022/01/20 04:33:45;;;;;;;;;12.00;12.00;;;;;7.57;66.02;102725.59;4979227;28;45403;-81
2022/01/20 04:36:10;;;;;;;;;12.00;12.00;;;;;7.50;66.11;102713.19;4979651;28;45321;-81
2022/01/20 04:38:36;;;;;;;;;13.00;13.00;;;;;7.48;66.07;102717.63;4979079;28;45719;-82
2022/01/20 04:41:01;;;;;;;;;13.33;12.33;;;;;7.35;65.91;102712.31;4979108;28;46120;-82
2022/01/20 04:43:27;;;;;;;;;11.33;11.33;;;;;7.51;65.71;102738.84;4979091;28;45328;-81
2022/01/20 04:46:09;;;;;;;;;4.67;4.67;;;;;7.58;66.25;102751.22;4979632;28;45837;-82
2022/01/20 04:59:17;;;;;;;;;15.33;15.33;;;;;7.53;65.95;102772.44;4969774;28;45607;-82
2022/01/20 05:01:45;;;;;;;;;12.67;9.33;;;;;7.38;65.77;102746.78;4978573;28;45989;-82
2022/01/20 05:04:11;;;;;;;;;12.33;8.00;;;;;7.43;65.84;102759.19;4978831;28;45424;-81
2022/01/20 05:06:39;;;;;;;;;12.33;9.00;;;;;7.36;66.18;102752.97;4978718;28;45818;-81
2022/01/20 05:09:05;;;;;;;;;11.00;8.67;;;;;7.46;65.44;102764.47;4961774;28;45443;-81
2022/01/20 05:11:30;;;;;;;;;12.00;9.33;;;;;7.22;65.47;102723.75;4978297;28;46106;-81
2022/01/20 05:13:57;;;;;;;;;12.67;11.33;;;;;7.43;65.82;102759.19;4978583;28;45406;-81
2022/01/20 05:16:24;;;;;;;;;12.67;10.67;;;;;7.42;65.61;102758.28;4960869;28;45352;-81
2022/01/20 05:18:49;;;;;;;;;12.67;7.33;;;;;7.30;65.71;102743.22;4979197;28;45262;-81
2022/01/20 05:21:14;;;;;;;;;12.00;8.33;;;;;7.28;65.77;102744.09;4978354;28;46075;-81
2022/01/20 05:23:40;;;;;;;;;8.67;7.00;;;;;7.13;65.58;102729.94;4978432;28;45417;-82
2022/01/20 05:26:05;;;;;;;;;9.00;9.00;;;;;7.20;65.91;102749.38;4979064;28;45318;-81
2022/01/20 05:28:30;;;;;;;;;9.67;7.67;;;;;7.21;65.51;102751.19;4978276;28;45595;-81
2022/01/20 05:30:56;;;;;;;;;8.00;8.00;;;;;7.16;65.45;102743.22;4978849;28;45246;-82
2022/01/20 05:33:21;;;;;;;;;11.67;10.33;;;;;7.23;65.35;102756.47;4978043;28;45463;-81
2022/01/20 05:35:46;;;;;;;;;8.00;8.00;;;;;7.22;65.79;102760.91;4978391;28;45413;-81
2022/01/20 05:38:12;;;;;;;;;17.67;13.33;;;;;7.27;65.62;102780.34;4978806;28;45490;-81
2022/01/20 05:40:38;;;;;;;;;16.67;15.00;;;;;7.00;65.67;102735.19;4978150;28;45340;-81
2022/01/20 05:43:03;;;;;;;;;14.00;11.67;;;;;7.09;65.56;102753.78;4960802;28;46209;-81
2022/01/20 05:45:29;;;;;;;;;16.00;16.00;;;;;7.04;65.33;102755.53;4977850;28;45299;-81
2022/01/20 05:48:01;;;;;;;;;20.67;17.67;;;;;6.99;65.28;102758.16;4978347;28;45361;-82
2022/01/20 05:50:26;;;;;;;;;16.33;14.33;;;;;7.17;65.62;102783.88;4976594;28;47160;-81
2022/01/20 05:52:52;;;;;;;;;16.00;16.00;;;;;7.05;65.41;102759.97;4977184;28;45480;-81
2022/01/20 05:55:21;;;;;;;;;14.67;12.67;;;;;7.03;65.20;102759.06;4960447;28;47531;-81
2022/01/20 05:57:46;;;;;;;;;10.00;7.33;;;;;7.27;65.25;102811.31;4978206;28;45556;-81
2022/01/20 06:00:16;;;;;;;;;14.33;14.33;;;;;7.17;65.23;102800.66;4977132;28;45769;-81
2022/01/20 06:05:25;;;;;;;;;9.33;8.67;;;;;7.28;65.08;102821.00;4977466;28;45386;-81
2022/01/20 06:07:51;;;;;;;;;12.33;9.33;;;;;7.26;65.42;102818.38;4978528;28;45430;-81
2022/01/20 06:10:16;;;;;;;;;12.33;10.67;;;;;7.05;64.93;102782.06;4977081;28;46575;-81
2022/01/20 06:12:42;;;;;;;;;13.67;12.00;;;;;7.24;64.97;102819.25;4977774;28;45701;-81
2022/01/20 06:15:10;;;;;;;;;12.33;7.67;;;;;7.24;65.00;102819.25;4977957;28;45408;-81
2022/01/20 06:17:36;;;;;;;;;9.33;7.00;;;;;7.10;65.21;102792.69;4959426;28;45476;-81
2022/01/20 06:20:03;;;;;;;;;8.00;8.00;;;;;7.17;64.46;102808.63;4976122;28;46183;-80
2022/01/20 06:22:29;;;;;;;;;9.00;9.00;;;;;7.27;64.93;102819.25;4973991;28;45461;-80
2022/01/20 06:24:54;;;;;;;;;11.33;9.00;;;;;7.19;64.60;102809.50;4959146;28;45509;-80
2022/01/20 06:27:19;;;;;;;;;10.00;8.33;;;;;7.01;64.55;102790.88;4961151;28;45420;-84
2022/01/20 06:29:46;;;;;;;;;15.33;11.00;;;;;6.93;64.42;102779.34;4966596;28;47300;-82
2022/01/20 06:32:11;;;;;;;;;11.00;11.00;;;;;7.21;64.75;102824.53;4976839;28;45470;-80
2022/01/20 06:34:36;;;;;;;;;8.67;8.67;;;;;6.46;64.73;102701.44;4975046;28;45445;-82
2022/01/20 06:37:02;;;;;;;;;14.00;11.00;;;;;7.02;64.09;102802.34;4976450;28;45460;-82
2022/01/20 06:39:28;;;;;;;;;16.00;13.00;;;;;7.00;64.51;102796.16;4955264;28;48078;-82
2022/01/20 06:41:53;;;;;;;;;12.33;10.33;;;;;6.96;64.47;102803.22;4976346;28;45492;-82
2022/01/20 06:44:20;;;;;;;;;11.33;8.33;;;;;6.05;64.69;102653.53;4976245;28;45428;-83
2022/01/20 06:46:45;;;;;;;;;11.67;8.67;;;;;6.25;64.28;102674.81;4958926;28;45343;-81
2022/01/20 06:49:11;;;;;;;;;13.67;9.67;;;;;5.96;64.30;102643.75;4976013;28;45425;-81
2022/01/20 06:51:37;;;;;;;;;11.33;11.00;;;;;6.78;64.20;102790.75;4975389;28;45452;-81
2022/01/20 06:54:04;;;;;;;;;13.67;13.00;;;;;6.29;64.34;102713.66;4977025;28;45466;-81
2022/01/20 06:56:29;;;;;;;;;13.33;13.00;;;;;7.19;64.36;102857.25;4955690;28;45353;-80
2022/01/20 06:58:54;;;;;;;;;15.00;11.33;;;;;7.01;64.15;102829.75;4956800;28;45431;-81
2022/01/20 07:01:20;;;;;;;;;15.67;13.00;;;;;7.18;63.95;102875.78;4967190;28;45587;-80
2022/01/20 07:03:46;;;;;;;;;16.00;12.33;;;;;7.17;64.06;102874.91;4976462;28;45483;-81
2022/01/20 07:06:11;;;;;;;;;13.00;12.67;;;;;6.96;64.04;102838.56;4979190;28;45464;-81
2022/01/20 07:08:36;;;;;;;;;15.67;14.00;;;;;6.91;64.66;102844.75;4979333;28;45512;-80
2022/01/20 07:11:02;;;;;;;;;12.00;12.00;;;;;6.94;63.92;102856.22;4979401;28;47395;-81
2022/01/20 07:13:27;;;;;;;;;22.33;19.33;;;;;6.77;64.06;102834.06;4979368;28;45739;-80
2022/01/20 07:15:54;;;;;;;;;16.00;12.00;;;;;7.04;64.24;102891.63;4979957;28;45645;-82
2022/01/20 07:18:19;;;;;;;;;15.00;12.33;;;;;6.96;64.45;102881.00;4967958;28;45653;-82
2022/01/20 07:20:44;;;;;;;;;14.33;14.00;;;;;6.86;64.19;102865.91;4979394;28;45349;-83
2022/01/20 07:23:10;;;;;;;;;12.00;12.00;;;;;6.87;64.44;102866.81;4979919;28;45231;-83
2022/01/20 07:25:35;;;;;;;;;15.67;14.33;;;;;7.15;64.12;102916.44;4980019;28;45357;-83
2022/01/20 07:28:01;;;;;;;;;21.33;17.67;;;;;7.05;64.56;102895.19;4971994;28;45584;-82
2022/01/20 07:30:27;;;;;;;;;16.00;13.67;;;;;7.00;64.10;102887.22;4976563;28;45809;-84
2022/01/20 07:32:52;;;;;;;;;14.00;9.00;;;;;7.16;63.81;102923.53;4978336;28;45404;-83
2022/01/20 07:35:18;;;;;;;;;18.67;17.00;;;;;6.40;64.23;102799.38;4977690;28;46424;-82
2022/01/20 07:37:43;;;;;;;;;26.00;21.67;;;;;6.00;64.29;102713.50;4979498;28;46038;-83
2022/01/20 07:40:10;;;;;;;;;19.67;16.67;;;;;6.32;64.03;102764.00;4977536;28;45657;-84
2022/01/20 07:42:35;;;;;;;;;25.33;20.67;;;;;7.21;64.75;102915.59;4979581;28;45866;-87
2022/01/20 07:45:00;;;;;;;;;20.25;20.00;;;;;6.42;64.26;102789.69;4977503;28;45431;-87
2022/01/20 07:47:26;;;;;;;;;20.67;19.67;;;;;7.30;64.30;102915.63;4961996;28;46129;-86
2022/01/20 07:49:52;;;;;;;;;18.67;18.67;;;;;7.16;64.64;102899.66;4976814;28;45887;-84
2022/01/20 07:52:17;;;;;;;;;32.50;25.50;;;;;6.83;64.01;102820.81;4979429;28;45616;-85
2022/01/20 07:54:42;;;;;;;;;24.50;21.50;;;;;6.17;63.75;102717.13;4961873;28;45450;-85
2022/01/20 07:57:09;;;;;;;;;25.75;24.25;;;;;7.06;64.24;102858.06;4978246;28;46197;-85
2022/01/20 07:59:35;;;;;;;;;25.67;22.33;;;;;7.32;64.94;102897.97;4978460;28;45338;-85
2022/01/20 08:02:01;;;;;;;;;36.50;34.25;;;;;7.58;64.67;102926.38;4977580;28;45352;-85
2022/01/20 08:04:26;;;;;;;;;24.67;24.33;;;;;6.33;64.03;102694.28;4962697;28;45312;-91
2022/01/20 08:06:52;;;;;;;;;26.33;22.00;;;;;6.23;64.04;102679.25;4963160;28;48423;-91
2022/01/20 08:09:17;;;;;;;;;17.33;17.33;;;;;7.16;64.53;102848.38;4963097;28;45392;-93
2022/01/20 08:11:43;;;;;;;;;21.00;17.33;;;;;7.73;64.22;102938.84;4963050;28;45385;-88
2022/01/20 08:14:09;;;;;;;;;18.00;16.00;;;;;6.79;63.46;102768.69;4977800;28;45571;-88
2022/01/20 08:16:34;;;;;;;;;13.33;12.00;;;;;7.31;63.99;102840.50;4958088;28;47412;-90
2022/01/20 08:19:10;;;;;;;;;12.67;11.67;;;;;6.43;63.71;102693.44;4944838;28;45487;-94
2022/01/20 08:21:35;;;;;;;;;18.67;16.00;;;;;7.21;63.68;102827.19;4944734;28;45423;-93
2022/01/20 08:30:51;;;;;;;;;16.00;16.00;;;;;6.63;63.81;102705.91;4959766;28;45275;-96
2022/01/20 08:33:17;;;;;;;;;14.67;14.33;;;;;7.51;63.72;102848.50;4946558;28;45368;-96
2022/01/20 08:35:44;;;;;;;;;16.00;16.00;;;;;6.58;63.21;102684.69;4949007;28;45447;-96
2022/01/20 08:38:10;;;;;;;;;15.00;11.00;;;;;7.24;62.92;102795.38;4948219;28;48656;-96
2022/01/20 08:40:37;;;;;;;;;12.00;10.33;;;;;7.49;63.03;102834.38;4946917;28;45305;-95
2022/01/20 08:43:03;;;;;;;;;10.67;7.67;;;;;7.82;63.24;102897.25;4945711;28;45351;-95
2022/01/20 08:45:32;;;;;;;;;13.00;11.00;;;;;6.65;62.64;102712.06;4962543;28;45442;-96
2022/01/20 08:48:11;;;;;;;;;;;;;;;;;;;;;
2022/01/20 08:50:46;;;;;;;;;32.33;29.33;;;;;6.69;62.81;102705.91;4963948;28;71532;-96
2022/01/20 08:53:17;;;;;;;;;24.33;23.67;;;;;7.39;62.99;102822.81;4945966;28;45263;-96
2022/01/20 08:56:00;;;;;;;;;;;;;;;;;;;;;
2022/01/20 08:58:26;;;;;;;;;18.67;16.00;;;;;7.38;62.79;102810.44;4964673;28;75120;-93
2022/01/20 09:00:54;;;;;;;;;28.00;23.67;;;;;8.24;62.61;102946.03;4959994;28;45573;-95
2022/01/20 09:03:23;;;;;;;;;20.33;18.67;;;;;7.82;62.41;102872.50;4962328;28;45381;-88
2022/01/20 09:05:49;;;;;;;;;25.33;24.67;;;;;7.41;62.49;102785.69;4959319;28;45541;-88
2022/01/20 09:08:14;;;;;;;;;24.67;21.33;;;;;7.77;62.67;102853.91;4976949;28;45534;-91
2022/01/20 09:10:43;;;;;;;;;14.00;14.00;;;;;7.55;62.60;102810.50;4959701;28;45472;-88
2022/01/20 09:16:09;;;;;;;;;18.33;16.00;;;;;7.82;62.73;102827.38;4929419;28;45528;-96
2022/01/20 09:18:35;;;;;;;;;14.33;14.00;;;;;7.60;63.07;102800.75;4941446;28;47113;-92
2022/01/20 09:21:00;;;;;;;;;15.00;13.33;;;;;7.53;62.71;102791.03;4937868;28;45426;-93
2022/01/20 09:23:25;;;;;;;;;10.00;10.00;;;;;7.31;63.01;102746.78;4922666;28;45433;-92
2022/01/20 09:26:14;;;;;;;;;12.67;9.67;;;;;8.57;62.62;102964.69;4939125;28;45663;-92
2022/01/20 09:28:39;;;;;;;;;9.67;8.67;;;;;7.89;62.53;102876.94;4920817;28;47260;-92
2022/01/20 09:31:06;;;;;;;;;15.33;14.00;;;;;8.23;62.65;102920.34;4921422;28;45533;-90
2022/01/20 09:33:31;;;;;;;;;14.00;11.33;;;;;8.55;62.49;102954.06;4937332;28;45338;-92
2022/01/20 09:35:58;;;;;;;;;17.33;10.67;;;;;7.86;62.33;102854.78;4921966;28;45553;-92
2022/01/20 09:38:23;;;;;;;;;13.00;13.00;;;;;8.67;62.58;102977.09;4921092;28;47249;-91
2022/01/20 09:40:49;;;;;;;;;14.67;12.33;;;;;7.79;62.27;102822.91;4936823;28;45513;-91
2022/01/20 09:43:15;;;;;;;;;18.67;15.33;;;;;8.75;62.22;102980.63;4936902;28;45544;-92
2022/01/20 09:45:42;;;;;;;;;21.00;19.00;;;;;8.37;62.30;102914.16;4921218;28;45476;-91
2022/01/20 09:48:10;;;;;;;;;16.00;16.00;;;;;8.28;62.66;102882.28;4922157;28;47462;-92
2022/01/20 09:50:36;;;;;;;;;26.33;22.00;;;;;8.41;62.59;102878.78;4966090;28;45684;-93
2022/01/20 09:53:02;;;;;;;;;20.67;18.33;;;;;8.00;61.96;102816.72;4961346;28;45351;-91
2022/01/20 09:55:30;;;;;;;;;16.67;16.33;;;;;8.31;62.33;102853.94;4958726;28;45374;-93
2022/01/20 09:57:56;;;;;;;;;20.00;18.00;;;;;9.16;62.12;102973.53;4945875;28;47483;-94
2022/01/20 10:00:21;;;;;;;;;18.00;17.33;;;;;8.18;63.03;102793.72;4965940;28;45339;-92
2022/01/20 10:02:56;;;;;;;;;15.33;15.00;;;;;8.38;62.64;102804.31;4982418;28;45399;-92
2022/01/20 10:05:31;;;;;;;;;20.00;16.00;;;;;9.11;62.33;102930.97;4963262;28;45415;-93
2022/01/20 10:08:04;;;;;;;;;18.00;16.33;;;;;9.00;61.55;102892.84;4962002;28;47676;-95
2022/01/20 10:10:40;;;;;;;;;19.00;17.67;;;;;8.45;61.73;102819.41;4964725;28;45464;-95
2022/01/20 10:13:07;;;;;;;;;35.67;31.00;;;;;9.58;61.69;102993.81;4970277;28;45429;-95
2022/01/20 10:15:32;;;;;;;;;19.67;19.67;;;;;9.61;61.97;102990.25;4979265;28;45547;-93
2022/01/20 10:18:14;;;;;;;;;16.33;15.33;;;;;9.67;61.18;102993.78;4962170;28;47273;-94
2022/01/20 10:20:51;;;;;;;;;15.33;15.33;;;;;9.12;61.84;102899.91;4962882;28;45562;-92
2022/01/20 10:23:29;;;;;;;;;19.33;16.67;;;;;9.08;61.38;102885.72;4962677;28;45441;-94
2022/01/20 10:26:16;;;;;;;;;19.33;18.67;;;;;9.21;61.24;102923.84;4963003;28;45205;-94
2022/01/20 10:28:54;;;;;;;;;19.33;18.00;;;;;9.42;61.60;102944.19;4958851;28;48749;-88
2022/01/20 10:31:44;;;;;;;;;22.67;21.33;;;;;8.82;61.40;102829.97;4975742;28;45547;-88
2022/01/20 10:34:18;;;;;;;;;23.33;21.33;;;;;10.01;61.14;103014.06;4975355;28;45447;-88
2022/01/20 10:36:51;;;;;;;;;39.00;33.00;;;;;9.13;61.29;102864.44;4975390;28;45701;-88
2022/01/20 10:39:17;;;;;;;;;17.00;15.00;;;;;9.56;60.81;102921.03;4957550;28;48115;-90
2022/01/20 10:41:42;;;;;;;;;21.67;17.00;;;;;10.21;61.17;103030.84;4958143;28;45581;-87
2022/01/20 10:44:11;;;;;;;;;21.33;17.00;;;;;10.24;61.28;103035.25;4975557;28;45341;-86
2022/01/20 10:46:52;;;;;;;;;17.67;17.00;;;;;10.00;60.76;102972.34;4976703;28;45430;-89
2022/01/20 10:49:20;;;;;;;;;18.00;15.67;;;;;10.43;61.03;103028.06;4973876;28;46364;-89
2022/01/20 10:52:00;;;;;;;;;14.33;13.33;;;;;10.02;61.25;102938.53;4959451;28;45538;-86
2022/01/20 10:54:33;;;;;;;;;16.33;16.33;;;;;9.88;60.77;102912.00;4971341;28;45508;-88
2022/01/20 10:56:58;;;;;;;;;18.33;15.00;;;;;9.80;60.44;102872.09;4975905;28;45591;-88
2022/01/20 10:59:25;;;;;;;;;15.33;14.67;;;;;10.28;60.14;102951.72;4974512;28;45536;-88
2022/01/20 11:02:02;;;;;;;;;17.67;16.33;;;;;10.77;60.48;103034.94;4974621;28;45567;-87
2022/01/20 11:04:29;;;;;;;;;17.33;15.33;;;;;10.39;60.38;102943.66;4957528;28;45427;-89
2022/01/20 11:06:57;;;;;;;;;20.00;16.00;;;;;10.54;60.18;102959.56;4958198;28;45476;-84
2022/01/20 11:09:25;;;;;;;;;15.00;14.00;;;;;10.98;59.75;103020.53;4974804;28;47542;-85
2022/01/20 11:11:52;;;;;;;;;14.33;14.33;;;;;10.98;59.38;103019.66;4975386;28;45420;-84
2022/01/20 11:14:17;;;;;;;;;21.00;14.33;;;;;10.94;59.54;103016.13;4975088;28;45436;-85
2022/01/20 11:16:43;;;;;;;;;20.33;17.67;;;;;10.82;59.89;102999.34;4975039;28;45520;-87
2022/01/20 11:19:36;;;;;;;;;24.00;18.00;;;;;11.07;60.05;103014.22;4975126;28;45468;-87
2022/01/20 11:22:11;;;;;;;;;16.00;15.67;;;;;10.97;59.86;102973.38;4972985;28;45476;-87
2022/01/20 11:24:37;;;;;;;;;17.00;15.33;;;;;11.31;58.98;103014.91;4972863;28;45529;-89
2022/01/20 11:27:05;;;;;;;;;17.33;15.00;;;;;11.38;58.93;103005.94;4971037;28;45464;-85
2022/01/20 11:29:50;;;;;;;;;14.00;13.33;;;;;11.26;59.53;102969.56;4956959;28;48125;-83
2022/01/20 11:32:26;;;;;;;;;13.00;13.00;;;;;10.99;58.88;102914.69;4974476;28;45839;-82
2022/01/20 11:34:58;;;;;;;;;15.67;12.00;;;;;11.30;58.25;102941.03;4974018;28;45653;-83
2022/01/20 11:37:25;;;;;;;;;13.67;12.00;;;;;11.47;58.48;102956.84;4975511;28;45480;-83
2022/01/20 11:39:53;;;;;;;;;20.00;14.33;;;;;11.29;58.32;102933.94;4974482;28;46753;-82
2022/01/20 11:42:24;;;;;;;;;9.33;9.33;;;;;11.75;57.66;103000.13;4973384;28;45435;-82
2022/01/20 11:44:50;;;;;;;;;9.67;7.67;;;;;11.55;57.68;102965.66;4972967;28;45376;-84
2022/01/20 11:47:15;;;;;;;;;9.33;8.67;;;;;11.72;57.26;102987.69;4979333;28;45463;-81
2022/01/20 11:49:45;;;;;;;;;8.67;8.33;;;;;11.70;57.38;102962.78;4978200;28;46529;-82
2022/01/20 11:52:21;;;;;;;;;9.67;8.67;;;;;11.95;57.39;102994.59;4977839;28;46180;-82
2022/01/20 11:54:46;;;;;;;;;13.00;9.67;;;;;11.96;57.60;102988.31;4978493;28;45571;-83
2022/01/20 11:57:18;;;;;;;;;10.00;8.00;;;;;12.09;57.78;103010.44;4980647;28;45435;-84
2022/01/20 11:59:51;;;;;;;;;6.00;6.00;;;;;11.68;57.26;102937.00;4961027;28;47415;-83
2022/01/20 12:02:32;;;;;;;;;11.67;8.00;;;;;11.84;56.93;102963.50;4977650;28;46529;-84
2022/01/20 12:04:59;;;;;;;;;7.00;6.00;;;;;11.96;56.51;102986.56;4978025;28;45556;-83
2022/01/20 12:07:34;;;;;;;;;7.00;6.00;;;;;11.84;56.13;102967.97;4960578;28;45503;-83
2022/01/20 12:10:09;;;;;;;;;8.33;6.67;;;;;11.36;55.47;102884.91;4977815;28;46808;-84
2022/01/20 12:12:38;;;;;;;;;7.00;5.00;;;;;11.61;55.27;102926.41;4977962;28;45540;-84
2022/01/20 12:15:15;;;;;;;;;9.00;8.00;;;;;11.54;55.78;102922.06;4977664;28;45758;-85
2022/01/20 12:17:48;;;;;;;;;7.33;7.33;;;;;12.04;55.35;103005.16;4960433;28;45821;-83
2022/01/20 12:20:13;;;;;;;;;5.00;5.00;;;;;11.91;55.26;102974.16;4976528;28;46360;-83
2022/01/20 12:22:43;;;;;;;;;5.00;3.67;;;;;12.12;54.60;103015.75;4977019;28;45455;-84
2022/01/20 12:25:19;;;;;;;;;5.67;4.00;;;;;11.40;53.55;102884.84;4958567;28;45428;-83
2022/01/20 12:27:46;;;;;;;;;10.00;7.00;;;;;11.45;53.70;102902.56;4972900;28;45452;-84
2022/01/20 12:30:22;;;;;;;;;5.33;5.33;;;;;12.11;55.14;103005.97;4975265;28;46641;-84
2022/01/20 12:32:59;;;;;;;;;6.33;6.00;;;;;11.97;54.39;102987.44;4976430;28;45489;-83
2022/01/20 12:35:25;;;;;;;;;5.67;4.33;;;;;12.17;54.21;103012.09;4960174;28;46135;-85
2022/01/20 12:37:50;;;;;;;;;6.67;5.67;;;;;11.41;54.01;102880.38;4975744;28;45342;-84
2022/01/20 12:40:22;;;;;;;;;5.67;5.33;;;;;11.50;54.44;102906.97;4957157;28;47423;-84
2022/01/20 12:42:48;;;;;;;;;5.33;5.33;;;;;11.57;54.27;102911.34;4956347;28;45437;-85